createdAt,value
2023-04-02T00:00:04.737Z,57.36
2023-04-02T00:01:04.681Z,54.43
2023-04-02T00:02:04.723Z,54.46
2023-04-02T00:03:04.742Z,54.69
2023-04-02T00:04:04.818Z,54.68
2023-04-02T00:05:04.646Z,55.20
2023-04-02T00:06:04.871Z,56.63
2023-04-02T00:07:04.667Z,57.21
2023-04-02T00:08:04.642Z,54.60
2023-04-02T00:09:04.659Z,54.65
2023-04-02T00:10:04.642Z,54.40
2023-04-02T00:11:04.607Z,54.40
2023-04-02T00:12:04.652Z,54.67
2023-04-02T00:13:04.610Z,54.35
2023-04-02T00:14:04.600Z,54.52
2023-04-02T00:15:04.599Z,54.64
2023-04-02T00:16:04.680Z,54.57
2023-04-02T00:17:04.604Z,54.43
2023-04-02T00:18:04.611Z,54.51
2023-04-02T00:19:04.601Z,54.33
2023-04-02T00:20:04.572Z,54.65
2023-04-02T00:21:04.550Z,56.21
2023-04-02T00:22:04.550Z,54.42
2023-04-02T00:23:04.538Z,54.41
2023-04-02T00:24:04.592Z,54.55
2023-04-02T00:25:04.534Z,54.98
2023-04-02T00:26:04.529Z,54.86
2023-04-02T00:27:04.507Z,54.59
2023-04-02T00:28:04.511Z,54.45
2023-04-02T00:29:04.515Z,54.40
2023-04-02T00:30:04.574Z,54.49
2023-04-02T00:31:04.462Z,54.41
2023-04-02T00:32:04.493Z,54.54
2023-04-02T00:33:04.508Z,54.37
2023-04-02T00:34:04.485Z,54.32
2023-04-02T00:35:04.470Z,56.22
2023-04-02T00:36:04.534Z,54.27
2023-04-02T00:37:04.443Z,54.14
2023-04-02T00:38:04.449Z,54.17
2023-04-02T00:39:04.422Z,54.10
2023-04-02T00:40:04.418Z,54.47
2023-04-02T00:41:04.411Z,55.71
2023-04-02T00:42:04.575Z,54.29
2023-04-02T00:43:04.430Z,54.24
2023-04-02T00:44:04.397Z,54.24
2023-04-02T00:45:04.437Z,54.24
2023-04-02T00:46:04.449Z,54.20
2023-04-02T00:47:04.402Z,54.26
2023-04-02T00:48:04.510Z,56.04
2023-04-02T00:49:04.383Z,54.33
2023-04-02T00:50:04.380Z,56.90
2023-04-02T00:51:04.343Z,53.86
2023-04-02T00:52:04.389Z,53.80
2023-04-02T00:53:04.365Z,53.77
2023-04-02T00:54:04.433Z,54.13
2023-04-02T00:55:04.341Z,56.51
2023-04-02T00:56:04.326Z,56.05
2023-04-02T00:57:04.348Z,54.00
2023-04-02T00:58:04.331Z,54.08
2023-04-02T00:59:04.306Z,54.23
2023-04-02T01:00:04.346Z,56.10
2023-04-02T01:01:04.366Z,55.82
2023-04-02T01:02:04.292Z,54.96
2023-04-02T01:03:04.457Z,55.74
2023-04-02T01:04:04.293Z,54.47
2023-04-02T01:05:04.261Z,54.34
2023-04-02T01:06:04.817Z,54.31
2023-04-02T01:07:04.265Z,54.70
2023-04-02T01:08:04.267Z,54.75
2023-04-02T01:09:04.419Z,54.20
2023-04-02T01:10:04.278Z,54.16
2023-04-02T01:11:04.255Z,54.22
2023-04-02T01:12:04.328Z,54.27
2023-04-02T01:13:04.204Z,54.29
2023-04-02T01:14:04.201Z,54.23
2023-04-02T01:15:04.241Z,54.26
2023-04-02T01:16:04.320Z,54.27
2023-04-02T01:17:04.254Z,54.27
2023-04-02T01:18:04.362Z,54.27
2023-04-02T01:19:04.205Z,54.43
2023-04-02T01:20:04.180Z,55.01
2023-04-02T01:21:04.211Z,54.21
2023-04-02T01:22:04.150Z,53.93
2023-04-02T01:23:04.223Z,55.26
2023-04-02T01:24:04.378Z,53.83
2023-04-02T01:25:04.194Z,53.87
2023-04-02T01:26:04.137Z,53.97
2023-04-02T01:27:04.114Z,53.99
2023-04-02T01:28:04.118Z,53.74
2023-04-02T01:29:04.260Z,54.02
2023-04-02T01:30:04.208Z,54.28
2023-04-02T01:31:04.106Z,54.15
2023-04-02T01:32:04.195Z,55.66
2023-04-02T01:33:04.123Z,54.92
2023-04-02T01:34:04.085Z,55.32
2023-04-02T01:35:04.075Z,54.53
2023-04-02T01:36:04.128Z,54.43
2023-04-02T01:37:04.049Z,56.23
2023-04-02T01:38:04.034Z,54.58
2023-04-02T01:39:04.037Z,54.48
2023-04-02T01:40:04.017Z,54.39
2023-04-02T01:41:04.038Z,54.48
2023-04-02T01:42:04.060Z,54.63
2023-04-02T01:43:04.002Z,55.73
2023-04-02T01:44:03.979Z,56.60
2023-04-02T01:45:03.988Z,55.46
2023-04-02T01:46:03.990Z,55.14
2023-04-02T01:47:03.932Z,55.03
2023-04-02T01:48:04.033Z,55.63
2023-04-02T01:49:04.074Z,56.79
2023-04-02T01:50:03.945Z,56.69
2023-04-02T01:51:03.947Z,56.83
2023-04-02T01:52:03.936Z,56.84
2023-04-02T01:53:03.926Z,56.98
2023-04-02T01:54:03.988Z,57.45
2023-04-02T01:55:03.916Z,57.51
2023-04-02T01:56:03.895Z,57.62
2023-04-02T01:57:03.891Z,57.65
2023-04-02T01:58:03.894Z,61.84
2023-04-02T01:59:03.881Z,57.40
2023-04-02T02:00:03.912Z,58.32
2023-04-02T02:01:03.887Z,58.47
2023-04-02T02:02:03.925Z,57.99
2023-04-02T02:03:03.891Z,58.71
2023-04-02T02:04:03.883Z,57.84
2023-04-02T02:05:03.833Z,58.16
2023-04-02T02:06:03.908Z,58.96
2023-04-02T02:07:03.801Z,57.29
2023-04-02T02:08:03.811Z,56.61
2023-04-02T02:09:03.822Z,56.83
2023-04-02T02:10:03.793Z,56.03
2023-04-02T02:11:03.782Z,56.05
2023-04-02T02:12:04.266Z,57.92
2023-04-02T02:13:03.800Z,56.08
2023-04-02T02:14:03.754Z,56.04
2023-04-02T02:15:03.736Z,55.98
2023-04-02T02:16:03.791Z,56.37
2023-04-02T02:17:03.734Z,56.16
2023-04-02T02:18:03.814Z,58.42
2023-04-02T02:19:03.761Z,55.36
2023-04-02T02:20:03.742Z,55.07
2023-04-02T02:21:03.733Z,55.13
2023-04-02T02:22:03.717Z,55.40
2023-04-02T02:23:03.726Z,55.46
2023-04-02T02:24:03.782Z,54.80
2023-04-02T02:25:03.738Z,55.95
2023-04-02T02:26:03.703Z,57.05
2023-04-02T02:27:03.680Z,55.16
2023-04-02T02:28:03.664Z,55.29
2023-04-02T02:29:03.702Z,55.29
2023-04-02T02:30:03.695Z,57.00
2023-04-02T02:31:03.683Z,56.32
2023-04-02T02:32:03.684Z,54.99
2023-04-02T02:33:03.690Z,56.28
2023-04-02T02:34:03.716Z,55.43
2023-04-02T02:35:03.615Z,55.83
2023-04-02T02:36:03.724Z,59.54
2023-04-02T02:37:03.618Z,55.53
2023-04-02T02:38:03.625Z,55.38
2023-04-02T02:39:03.599Z,55.39
2023-04-02T02:40:03.573Z,55.73
2023-04-02T02:41:03.585Z,59.83
2023-04-02T02:42:03.627Z,56.37
2023-04-02T02:43:03.576Z,56.91
2023-04-02T02:44:03.575Z,58.05
2023-04-02T02:45:03.561Z,56.80
2023-04-02T02:46:03.656Z,57.24
2023-04-02T02:47:03.544Z,55.70
2023-04-02T02:48:03.590Z,56.09
2023-04-02T02:49:03.495Z,55.68
2023-04-02T02:50:03.524Z,55.55
2023-04-02T02:51:03.523Z,55.60
2023-04-02T02:52:03.502Z,55.56
2023-04-02T02:53:03.492Z,55.75
2023-04-02T02:54:03.549Z,55.95
2023-04-02T02:55:03.496Z,55.87
2023-04-02T02:56:03.476Z,56.19
2023-04-02T02:57:03.499Z,58.15
2023-04-02T02:58:03.453Z,55.59
2023-04-02T02:59:03.473Z,55.55
2023-04-02T03:00:03.480Z,56.23
2023-04-02T03:01:03.450Z,57.24
2023-04-02T03:02:03.419Z,55.53
2023-04-02T03:03:03.576Z,56.07
2023-04-02T03:04:03.566Z,56.53
2023-04-02T03:05:03.399Z,55.40
2023-04-02T03:06:03.435Z,55.65
2023-04-02T03:07:03.391Z,55.58
2023-04-02T03:08:03.374Z,55.59
2023-04-02T03:09:03.382Z,56.00
2023-04-02T03:10:03.374Z,55.84
2023-04-02T03:11:03.354Z,55.67
2023-04-02T03:12:03.417Z,57.06
2023-04-02T03:13:03.345Z,58.70
2023-04-02T03:14:03.334Z,58.46
2023-04-02T03:15:04.231Z,56.14
2023-04-02T03:16:03.386Z,56.21
2023-04-02T03:17:03.318Z,57.48
2023-04-02T03:18:03.604Z,60.63
2023-04-02T03:19:03.314Z,55.47
2023-04-02T03:20:03.312Z,55.25
2023-04-02T03:21:03.282Z,56.05
2023-04-02T03:22:03.280Z,56.48
2023-04-02T03:23:03.317Z,58.18
2023-04-02T03:24:03.340Z,57.56
2023-04-02T03:25:03.321Z,57.87
2023-04-02T03:26:03.257Z,56.02
2023-04-02T03:27:03.308Z,55.89
2023-04-02T03:28:03.237Z,56.28
2023-04-02T03:29:03.238Z,56.44
2023-04-02T03:30:03.300Z,56.04
2023-04-02T03:31:03.264Z,56.16
2023-04-02T03:32:03.214Z,58.25
2023-04-02T03:33:03.256Z,58.67
2023-04-02T03:34:03.197Z,56.67
2023-04-02T03:35:03.219Z,59.69
2023-04-02T03:36:03.351Z,56.44
2023-04-02T03:37:03.183Z,56.18
2023-04-02T03:38:03.180Z,56.11
2023-04-02T03:39:03.176Z,56.56
2023-04-02T03:40:03.166Z,59.06
2023-04-02T03:41:03.155Z,65.21
2023-04-02T03:42:03.204Z,60.94
2023-04-02T03:43:03.128Z,55.86
2023-04-02T03:44:03.147Z,56.22
2023-04-02T03:45:03.136Z,56.73
2023-04-02T03:46:03.121Z,58.01
2023-04-02T03:47:03.119Z,56.31
2023-04-02T03:48:03.232Z,56.59
2023-04-02T03:49:03.098Z,57.66
2023-04-02T03:50:03.067Z,58.31
2023-04-02T03:51:03.079Z,58.12
2023-04-02T03:52:03.165Z,56.60
2023-04-02T03:53:03.067Z,58.60
2023-04-02T03:54:03.104Z,56.87
2023-04-02T03:55:02.998Z,58.63
2023-04-02T03:56:03.214Z,58.81
2023-04-02T03:57:03.090Z,58.64
2023-04-02T03:58:03.008Z,60.00
2023-04-02T03:59:03.015Z,59.47
2023-04-02T04:00:03.078Z,59.50
2023-04-02T04:01:03.004Z,58.91
2023-04-02T04:02:03.008Z,59.07
2023-04-02T04:03:03.058Z,59.28
2023-04-02T04:04:03.016Z,58.82
2023-04-02T04:05:02.981Z,59.00
2023-04-02T04:06:03.018Z,59.46
2023-04-02T04:07:02.938Z,59.50
2023-04-02T04:08:02.975Z,59.38
2023-04-02T04:09:02.991Z,59.01
2023-04-02T04:10:02.939Z,59.34
2023-04-02T04:11:02.943Z,58.12
2023-04-02T04:12:02.951Z,58.50
2023-04-02T04:13:02.921Z,58.83
2023-04-02T04:14:02.903Z,57.00
2023-04-02T04:15:02.930Z,58.00
2023-04-02T04:16:02.911Z,58.43
2023-04-02T04:17:02.853Z,59.66
2023-04-02T04:18:02.931Z,58.26
2023-04-02T04:19:02.861Z,60.91
2023-04-02T04:20:02.877Z,58.03
2023-04-02T04:21:02.857Z,59.63
2023-04-02T04:22:02.853Z,58.84
2023-04-02T04:23:02.843Z,58.60
2023-04-02T04:24:02.917Z,58.98
2023-04-02T04:25:02.838Z,59.14
2023-04-02T04:26:02.827Z,59.17
2023-04-02T04:27:02.818Z,60.26
2023-04-02T04:28:02.823Z,58.82
2023-04-02T04:29:02.807Z,62.22
2023-04-02T04:30:02.843Z,59.07
2023-04-02T04:31:02.779Z,57.90
2023-04-02T04:32:02.812Z,58.89
2023-04-02T04:33:02.800Z,60.42
2023-04-02T04:34:02.797Z,59.73
2023-04-02T04:35:02.837Z,58.93
2023-04-02T04:36:02.839Z,59.45
2023-04-02T04:37:02.736Z,59.16
2023-04-02T04:38:02.699Z,58.70
2023-04-02T04:39:02.719Z,59.54
2023-04-02T04:40:02.725Z,57.20
2023-04-02T04:41:02.732Z,57.07
2023-04-02T04:42:02.761Z,58.56
2023-04-02T04:43:02.692Z,57.57
2023-04-02T04:44:02.686Z,57.32
2023-04-02T04:45:02.723Z,56.79
2023-04-02T04:46:02.684Z,57.78
2023-04-02T04:47:02.695Z,57.59
2023-04-02T04:48:02.788Z,58.06
2023-04-02T04:49:02.635Z,58.05
2023-04-02T04:50:02.623Z,55.90
2023-04-02T04:51:02.648Z,57.61
2023-04-02T04:52:02.624Z,59.01
2023-04-02T04:53:02.618Z,56.63
2023-04-02T04:54:02.653Z,57.69
2023-04-02T04:55:02.605Z,57.10
2023-04-02T04:56:16.012Z,57.16
2023-04-02T04:57:03.639Z,59.19
2023-04-02T04:58:02.616Z,59.18
2023-04-02T04:59:02.583Z,59.52
2023-04-02T05:00:02.589Z,59.47
2023-04-02T05:01:02.685Z,57.45
2023-04-02T05:02:02.564Z,58.71
2023-04-02T05:03:02.557Z,56.78
2023-04-02T05:04:02.548Z,59.02
2023-04-02T05:05:02.787Z,58.55
2023-04-02T05:06:02.591Z,56.57
2023-04-02T05:07:02.528Z,56.44
2023-04-02T05:08:02.502Z,57.59
2023-04-02T05:09:02.497Z,58.38
2023-04-02T05:10:02.487Z,55.69
2023-04-02T05:11:02.495Z,55.38
2023-04-02T05:12:02.511Z,55.69
2023-04-02T05:13:02.465Z,56.21
2023-04-02T05:14:02.470Z,57.44
2023-04-02T05:15:02.482Z,56.21
2023-04-02T05:16:02.559Z,56.29
2023-04-02T05:17:02.501Z,57.29
2023-04-02T05:18:02.523Z,58.11
2023-04-02T05:19:02.439Z,56.92
2023-04-02T05:20:02.406Z,55.48
2023-04-02T05:21:02.405Z,55.71
2023-04-02T05:22:02.469Z,57.64
2023-04-02T05:23:02.403Z,58.71
2023-04-02T05:24:02.645Z,56.80
2023-04-02T05:25:02.422Z,56.60
2023-04-02T05:26:02.379Z,56.54
2023-04-02T05:27:02.405Z,56.87
2023-04-02T05:28:02.362Z,56.00
2023-04-02T05:29:02.413Z,56.05
2023-04-02T05:30:02.487Z,56.56
2023-04-02T05:31:02.423Z,56.39
2023-04-02T05:32:02.329Z,56.91
2023-04-02T05:33:02.354Z,55.69
2023-04-02T05:34:02.325Z,56.65
2023-04-02T05:35:02.302Z,57.18
2023-04-02T05:36:02.512Z,55.21
2023-04-02T05:37:02.875Z,55.58
2023-04-02T05:38:02.333Z,58.26
2023-04-02T05:39:02.304Z,55.36
2023-04-02T05:40:02.290Z,57.50
2023-04-02T05:41:02.334Z,56.30
2023-04-02T05:42:02.523Z,56.16
2023-04-02T05:43:02.280Z,57.70
2023-04-02T05:44:02.293Z,55.45
2023-04-02T05:45:02.280Z,55.46
2023-04-02T05:46:02.260Z,56.66
2023-04-02T05:47:02.261Z,56.62
2023-04-02T05:48:02.393Z,55.65
2023-04-02T05:49:02.272Z,58.80
2023-04-02T05:50:02.219Z,56.51
2023-04-02T05:51:02.216Z,56.07
2023-04-02T05:52:02.238Z,55.50
2023-04-02T05:53:02.197Z,55.61
2023-04-02T05:54:02.218Z,55.85
2023-04-02T05:55:02.193Z,56.07
2023-04-02T05:56:02.161Z,56.70
2023-04-02T05:57:02.174Z,57.33
2023-04-02T05:58:29.280Z,55.79
2023-04-02T05:59:03.201Z,56.47
2023-04-02T06:00:02.146Z,55.92
2023-04-02T06:01:02.177Z,55.93
2023-04-02T06:02:02.171Z,56.02
2023-04-02T06:03:02.178Z,57.51
2023-04-02T06:04:02.199Z,56.48
2023-04-02T06:05:02.172Z,55.70
2023-04-02T06:06:02.123Z,56.33
2023-04-02T06:07:02.106Z,57.82
2023-04-02T06:08:02.106Z,58.51
2023-04-02T06:09:02.118Z,56.73
2023-04-02T06:10:02.071Z,56.49
2023-04-02T06:11:02.136Z,56.03
2023-04-02T06:12:02.089Z,57.49
2023-04-02T06:13:02.046Z,57.12
2023-04-02T06:14:02.049Z,58.17
2023-04-02T06:15:02.060Z,56.84
2023-04-02T06:16:02.042Z,57.46
2023-04-02T06:17:02.140Z,57.05
2023-04-02T06:18:02.093Z,58.30
2023-04-02T06:19:02.000Z,58.27
2023-04-02T06:20:02.018Z,60.26
2023-04-02T06:21:01.984Z,60.79
2023-04-02T06:22:02.034Z,59.31
2023-04-02T06:23:02.052Z,58.59
2023-04-02T06:24:01.979Z,56.57
2023-04-02T06:25:01.980Z,58.95
2023-04-02T06:26:01.976Z,56.71
2023-04-02T06:27:01.965Z,57.54
2023-04-02T06:28:01.952Z,60.59
2023-04-02T06:29:02.011Z,56.34
2023-04-02T06:30:01.944Z,58.96
2023-04-02T06:31:01.951Z,57.25
2023-04-02T06:32:01.935Z,57.93
2023-04-02T06:33:01.971Z,58.83
2023-04-02T06:34:01.925Z,56.92
2023-04-02T06:35:01.974Z,57.68
2023-04-02T06:36:01.948Z,57.25
2023-04-02T06:37:01.898Z,56.48
2023-04-02T06:38:01.905Z,58.79
2023-04-02T06:39:01.879Z,60.99
2023-04-02T06:40:01.870Z,60.72
2023-04-02T06:41:01.907Z,57.00
2023-04-02T06:42:01.877Z,58.88
2023-04-02T06:43:01.831Z,60.54
2023-04-02T06:44:01.829Z,57.46
2023-04-02T06:45:01.846Z,60.73
2023-04-02T06:46:01.849Z,57.58
2023-04-02T06:47:01.938Z,57.76
2023-04-02T06:48:01.806Z,58.89
2023-04-02T06:49:01.813Z,57.32
2023-04-02T06:50:01.843Z,57.53
2023-04-02T06:51:01.819Z,58.24
2023-04-02T06:52:01.806Z,57.96
2023-04-02T06:53:01.847Z,57.77
2023-04-02T06:54:01.784Z,60.73
2023-04-02T06:55:01.821Z,58.06
2023-04-02T06:56:01.783Z,57.56
2023-04-02T06:57:01.805Z,56.42
2023-04-02T06:58:01.760Z,59.52
2023-04-02T06:59:01.755Z,58.21
2023-04-02T07:00:01.755Z,56.99
2023-04-02T07:01:01.727Z,57.53
2023-04-02T07:02:01.763Z,60.53
2023-04-02T07:03:01.718Z,59.70
2023-04-02T07:04:01.685Z,57.26
2023-04-02T07:05:01.784Z,57.89
2023-04-02T07:06:01.753Z,60.69
2023-04-02T07:07:01.830Z,60.10
2023-04-02T07:08:01.907Z,56.78
2023-04-02T07:09:01.762Z,60.92
2023-04-02T07:10:01.759Z,59.42
2023-04-02T07:11:01.711Z,58.99
2023-04-02T07:12:01.663Z,61.39
2023-04-02T07:13:01.645Z,59.12
2023-04-02T07:14:01.650Z,60.40
2023-04-02T07:15:01.616Z,61.84
2023-04-02T07:16:01.681Z,59.55
2023-04-02T07:17:01.670Z,59.28
2023-04-02T07:18:01.727Z,61.88
2023-04-02T07:19:01.616Z,59.16
2023-04-02T07:20:01.594Z,60.47
2023-04-02T07:21:01.591Z,63.38
2023-04-02T07:22:01.601Z,57.52
2023-04-02T07:23:01.598Z,57.44
2023-04-02T07:24:01.609Z,57.96
2023-04-02T07:25:01.623Z,63.14
2023-04-02T07:26:01.552Z,59.12
2023-04-02T07:27:01.560Z,62.57
2023-04-02T07:28:01.554Z,56.97
2023-04-02T07:29:02.064Z,59.21
2023-04-02T07:30:01.528Z,57.91
2023-04-02T07:31:01.701Z,59.80
2023-04-02T07:32:01.548Z,58.00
2023-04-02T07:33:01.492Z,56.85
2023-04-02T07:34:01.501Z,64.15
2023-04-02T07:35:01.546Z,58.41
2023-04-02T07:36:01.510Z,59.49
2023-04-02T07:37:01.473Z,57.21
2023-04-02T07:38:01.460Z,60.67
2023-04-02T07:39:01.491Z,57.39
2023-04-02T07:40:01.445Z,56.76
2023-04-02T07:41:01.519Z,57.84
2023-04-02T07:42:01.470Z,61.39
2023-04-02T07:43:01.439Z,64.10
2023-04-02T07:44:01.430Z,60.12
2023-04-02T07:45:02.389Z,57.68
2023-04-02T07:46:01.392Z,58.15
2023-04-02T07:47:01.573Z,61.01
2023-04-02T07:48:01.486Z,65.67
2023-04-02T07:49:01.388Z,59.34
2023-04-02T07:50:01.386Z,57.54
2023-04-02T07:51:01.370Z,60.02
2023-04-02T07:52:01.397Z,58.96
2023-04-02T07:53:01.450Z,59.70
2023-04-02T07:54:01.343Z,63.36
2023-04-02T07:55:01.367Z,62.63
2023-04-02T07:56:01.423Z,58.79
2023-04-02T07:57:01.389Z,59.65
2023-04-02T07:58:01.321Z,57.17
2023-04-02T07:59:01.363Z,58.69
2023-04-02T08:00:01.357Z,58.40
2023-04-02T08:01:01.420Z,60.52
2023-04-02T08:02:01.335Z,61.06
2023-04-02T08:03:01.409Z,59.39
2023-04-02T08:04:01.310Z,60.50
2023-04-02T08:05:01.317Z,60.23
2023-04-02T08:06:01.290Z,59.01
2023-04-02T08:07:01.288Z,60.90
2023-04-02T08:08:01.264Z,57.78
2023-04-02T08:09:01.292Z,58.25
2023-04-02T08:10:01.354Z,58.48
2023-04-02T08:11:01.303Z,58.12
2023-04-02T08:12:01.254Z,59.20
2023-04-02T08:13:01.220Z,59.33
2023-04-02T08:14:01.248Z,58.29
2023-04-02T08:15:01.259Z,58.42
2023-04-02T08:16:01.206Z,56.67
2023-04-02T08:17:01.278Z,58.74
2023-04-02T08:18:01.245Z,59.84
2023-04-02T08:19:01.173Z,55.91
2023-04-02T08:20:01.209Z,58.66
2023-04-02T08:21:01.181Z,57.03
2023-04-02T08:22:01.168Z,59.56
2023-04-02T08:23:01.232Z,57.77
2023-04-02T08:24:01.190Z,58.38
2023-04-02T08:25:01.152Z,58.32
2023-04-02T08:26:01.149Z,60.93
2023-04-02T08:27:01.125Z,58.52
2023-04-02T08:28:01.120Z,59.04
2023-04-02T08:29:01.185Z,56.86
2023-04-02T08:30:01.135Z,56.47
2023-04-02T08:31:01.173Z,58.05
2023-04-02T08:32:01.127Z,58.38
2023-04-02T08:33:09.641Z,58.24
2023-04-02T08:34:01.074Z,57.18
2023-04-02T08:35:01.474Z,58.43
2023-04-02T08:36:01.083Z,56.84
2023-04-02T08:37:01.049Z,58.98
2023-04-02T08:38:01.048Z,59.49
2023-04-02T08:39:01.391Z,59.64
2023-04-02T08:40:01.074Z,58.06
2023-04-02T08:41:01.103Z,56.79
2023-04-02T08:42:01.042Z,56.83
2023-04-02T08:43:01.033Z,57.02
2023-04-02T08:44:01.017Z,59.42
2023-04-02T08:45:03.937Z,57.34
2023-04-02T08:46:02.111Z,58.60
2023-04-02T08:47:01.017Z,56.96
2023-04-02T08:48:01.056Z,58.92
2023-04-02T08:49:01.008Z,65.64
2023-04-02T08:50:00.987Z,58.37
2023-04-02T08:51:00.961Z,60.83
2023-04-02T08:52:01.016Z,60.70
2023-04-02T08:53:00.951Z,60.41
2023-04-02T08:54:00.950Z,61.67
2023-04-02T08:55:00.949Z,62.00
2023-04-02T08:56:00.959Z,60.52
2023-04-02T08:57:00.935Z,60.73
2023-04-02T08:58:00.960Z,63.10
2023-04-02T08:59:00.899Z,62.55
2023-04-02T09:00:00.902Z,64.09
2023-04-02T09:01:00.895Z,61.31
2023-04-02T09:02:00.960Z,59.05
2023-04-02T09:03:00.945Z,56.94
2023-04-02T09:04:00.957Z,58.55
2023-04-02T09:05:00.920Z,63.17
2023-04-02T09:06:00.847Z,59.50
2023-04-02T09:07:00.880Z,59.28
2023-04-02T09:08:00.849Z,56.76
2023-04-02T09:09:01.915Z,63.31
2023-04-02T09:10:02.527Z,59.12
2023-04-02T09:11:00.843Z,58.78
2023-04-02T09:12:00.884Z,58.05
2023-04-02T09:13:00.844Z,59.03
2023-04-02T09:14:00.838Z,56.62
2023-04-02T09:15:00.814Z,59.72
2023-04-02T09:16:00.861Z,60.23
2023-04-02T09:17:00.794Z,59.00
2023-04-02T09:18:00.921Z,57.53
2023-04-02T09:19:00.810Z,58.24
2023-04-02T09:20:00.759Z,61.48
2023-04-02T09:21:00.784Z,59.10
2023-04-02T09:22:00.797Z,58.58
2023-04-02T09:23:00.918Z,61.72
2023-04-02T09:24:01.539Z,57.86
2023-04-02T09:25:00.778Z,57.60
2023-04-02T09:26:04.625Z,56.85
2023-04-02T09:27:00.702Z,60.87
2023-04-02T09:28:00.749Z,58.62
2023-04-02T09:29:00.721Z,59.95
2023-04-02T09:30:00.692Z,61.74
2023-04-02T09:31:00.707Z,59.68
2023-04-02T09:32:00.782Z,57.19
2023-04-02T09:33:00.694Z,59.90
2023-04-02T09:34:00.707Z,58.09
2023-04-02T09:35:00.670Z,59.11
2023-04-02T09:36:00.682Z,62.26
2023-04-02T09:37:00.643Z,59.07
2023-04-02T09:38:00.634Z,56.49
2023-04-02T09:39:00.617Z,57.86
2023-04-02T09:40:11.085Z,60.27
2023-04-02T09:41:00.629Z,60.36
2023-04-02T09:42:05.890Z,56.00
2023-04-02T09:43:01.598Z,59.06
2023-04-02T09:44:00.581Z,62.22
2023-04-02T09:45:00.597Z,60.55
2023-04-02T09:46:00.613Z,62.68
2023-04-02T09:47:00.691Z,59.94
2023-04-02T09:48:00.608Z,58.76
2023-04-02T09:49:00.568Z,58.86
2023-04-02T09:50:00.549Z,59.89
2023-04-02T09:51:00.569Z,57.28
2023-04-02T09:52:00.567Z,58.69
2023-04-02T09:53:00.534Z,58.77
2023-04-02T09:54:00.534Z,60.13
2023-04-02T09:55:00.537Z,60.44
2023-04-02T09:56:00.505Z,61.01
2023-04-02T09:57:00.574Z,61.80
2023-04-02T09:58:02.101Z,57.03
2023-04-02T09:59:00.526Z,57.38
2023-04-02T10:00:00.486Z,59.30
2023-04-02T10:01:00.527Z,63.66
2023-04-02T10:02:00.458Z,62.03
2023-04-02T10:03:00.515Z,63.59
2023-04-02T10:04:00.554Z,60.28
2023-04-02T10:05:00.449Z,59.83
2023-04-02T10:06:00.444Z,60.14
2023-04-02T10:07:00.451Z,60.00
2023-04-02T10:08:00.448Z,64.30
2023-04-02T10:09:00.395Z,55.66
2023-04-02T10:10:00.462Z,59.18
2023-04-02T10:11:00.403Z,58.36
2023-04-02T10:12:00.395Z,56.49
2023-04-02T10:13:00.386Z,59.57
2023-04-02T10:14:00.371Z,59.20
2023-04-02T10:15:00.380Z,59.50
2023-04-02T10:16:00.537Z,60.73
2023-04-02T10:17:00.419Z,57.59
2023-04-02T10:18:00.422Z,61.95
2023-04-02T10:19:00.337Z,60.37
2023-04-02T10:20:00.362Z,57.33
2023-04-02T10:21:00.353Z,59.16
2023-04-02T10:22:00.399Z,58.96
2023-04-02T10:23:00.316Z,61.31
2023-04-02T10:24:00.341Z,60.02
2023-04-02T10:25:00.343Z,57.45
2023-04-02T10:26:00.336Z,60.14
2023-04-02T10:27:00.300Z,61.11
2023-04-02T10:28:00.323Z,59.30
2023-04-02T10:29:00.298Z,60.87
2023-04-02T10:30:00.277Z,59.96
2023-04-02T10:31:00.279Z,57.29
2023-04-02T10:32:00.279Z,58.60
2023-04-02T10:33:00.355Z,57.32
2023-04-02T10:34:00.309Z,59.12
2023-04-02T10:35:00.267Z,59.66
2023-04-02T10:36:00.297Z,59.11
2023-04-02T10:37:00.223Z,56.99
2023-04-02T10:38:00.243Z,59.74
2023-04-02T10:39:00.253Z,58.18
2023-04-02T10:40:00.621Z,59.56
2023-04-02T10:41:00.187Z,60.37
2023-04-02T10:42:00.214Z,60.00
2023-04-02T10:43:00.228Z,59.57
2023-04-02T10:44:12.736Z,57.71
2023-04-02T10:45:01.218Z,61.55
2023-04-02T10:46:00.265Z,60.52
2023-04-02T10:47:00.152Z,58.44
2023-04-02T10:48:00.192Z,58.86
2023-04-02T10:49:00.135Z,59.76
2023-04-02T10:50:00.204Z,58.28
2023-04-02T10:51:00.180Z,60.07
2023-04-02T10:52:00.155Z,58.26
2023-04-02T10:53:00.138Z,59.49
2023-04-02T10:54:00.176Z,60.39
2023-04-02T10:55:00.111Z,57.49
2023-04-02T10:56:00.150Z,59.58
2023-04-02T10:57:00.215Z,58.76
2023-04-02T10:58:00.108Z,58.80
2023-04-02T10:59:00.091Z,58.24
2023-04-02T11:00:00.131Z,57.94
2023-04-02T11:01:00.104Z,60.74
2023-04-02T11:02:00.176Z,58.34
2023-04-02T11:03:00.148Z,58.82
2023-04-02T11:04:00.143Z,61.43
2023-04-02T11:05:01.779Z,57.98
2023-04-02T11:06:00.022Z,58.85
2023-04-02T11:07:11.294Z,58.59
2023-04-02T11:08:01.077Z,58.84
2023-04-02T11:09:00.004Z,59.89
2023-04-02T11:10:00.091Z,59.42
2023-04-02T11:11:00.000Z,56.68
2023-04-02T11:12:00.988Z,57.07
2023-04-02T11:12:59.988Z,59.89
2023-04-02T11:14:00.009Z,60.52
2023-04-02T11:14:59.978Z,58.90
2023-04-02T11:15:59.973Z,60.87
2023-04-02T11:16:59.962Z,57.54
2023-04-02T11:18:00.017Z,59.48
2023-04-02T11:18:59.950Z,58.62
2023-04-02T11:19:59.957Z,65.89
2023-04-02T11:20:59.926Z,60.12
2023-04-02T11:22:01.849Z,59.25
2023-04-02T11:23:00.008Z,59.47
2023-04-02T11:23:59.951Z,60.58
2023-04-02T11:24:59.906Z,60.82
2023-04-02T11:25:59.940Z,60.03
2023-04-02T11:26:59.874Z,59.89
2023-04-02T11:27:59.882Z,58.37
2023-04-02T11:28:59.957Z,57.78
2023-04-02T11:29:59.864Z,62.38
2023-04-02T11:30:59.909Z,60.03
2023-04-02T11:31:59.935Z,60.96
2023-04-02T11:32:59.881Z,59.74
2023-04-02T11:33:59.829Z,59.91
2023-04-02T11:35:05.859Z,60.36
2023-04-02T11:36:00.855Z,59.84
2023-04-02T11:36:59.796Z,58.22
2023-04-02T11:37:59.873Z,58.83
2023-04-02T11:39:10.866Z,61.77
2023-04-02T11:40:00.815Z,60.43
2023-04-02T11:40:59.782Z,60.28
2023-04-02T11:41:59.775Z,59.30
2023-04-02T11:42:59.790Z,60.01
2023-04-02T11:44:00.182Z,59.45
2023-04-02T11:44:59.768Z,59.18
2023-04-02T11:45:59.775Z,62.15
2023-04-02T11:46:59.829Z,61.12
2023-04-02T11:47:59.835Z,58.26
2023-04-02T11:48:59.729Z,57.44
2023-04-02T11:49:59.778Z,57.37
2023-04-02T11:50:59.765Z,57.93
2023-04-02T11:52:10.949Z,63.32
2023-04-02T11:53:00.695Z,59.37
2023-04-02T11:53:59.724Z,59.27
2023-04-02T11:54:59.715Z,60.23
2023-04-02T11:55:59.726Z,61.31
2023-04-02T11:56:59.763Z,59.47
2023-04-02T11:57:59.693Z,58.05
2023-04-02T11:58:59.688Z,61.89
2023-04-02T11:59:59.639Z,57.37
2023-04-02T12:00:59.647Z,59.35
2023-04-02T12:01:59.848Z,60.13
2023-04-02T12:02:59.758Z,59.05
2023-04-02T12:03:59.643Z,60.06
2023-04-02T12:04:59.675Z,59.43
2023-04-02T12:06:00.052Z,60.45
2023-04-02T12:06:59.604Z,63.37
2023-04-02T12:07:59.707Z,59.05
2023-04-02T12:08:59.592Z,60.28
2023-04-02T12:09:59.685Z,58.00
2023-04-02T12:10:59.625Z,57.79
2023-04-02T12:12:02.650Z,57.54
2023-04-02T12:12:59.704Z,59.98
2023-04-02T12:13:59.605Z,60.00
2023-04-02T12:14:59.535Z,57.91
2023-04-02T12:15:59.575Z,60.37
2023-04-02T12:16:59.613Z,58.31
2023-04-02T12:17:59.529Z,57.62
2023-04-02T12:18:59.528Z,58.98
2023-04-02T12:19:59.565Z,58.12
2023-04-02T12:20:59.500Z,63.00
2023-04-02T12:21:59.507Z,58.10
2023-04-02T12:22:59.484Z,60.21
2023-04-02T12:24:00.097Z,62.02
2023-04-02T12:24:59.490Z,62.29
2023-04-02T12:25:59.490Z,59.12
2023-04-02T12:26:59.458Z,59.60
2023-04-02T12:27:59.468Z,58.40
2023-04-02T12:28:59.459Z,58.80
2023-04-02T12:29:59.625Z,58.45
2023-04-02T12:30:59.461Z,57.42
2023-04-02T12:31:59.441Z,61.99
2023-04-02T12:32:59.475Z,57.44
2023-04-02T12:33:59.473Z,57.84
2023-04-02T12:34:59.419Z,59.88
2023-04-02T12:35:59.512Z,58.86
2023-04-02T12:36:59.424Z,58.43
2023-04-02T12:37:59.398Z,59.44
2023-04-02T12:38:59.413Z,59.19
2023-04-02T12:39:59.370Z,58.94
2023-04-02T12:40:59.338Z,58.79
2023-04-02T12:41:59.933Z,59.80
2023-04-02T12:42:59.344Z,59.73
2023-04-02T12:43:59.848Z,57.38
2023-04-02T12:44:59.321Z,58.76
2023-04-02T12:45:59.356Z,63.55
2023-04-02T12:46:59.338Z,62.48
2023-04-02T12:47:59.385Z,58.79
2023-04-02T12:48:59.364Z,60.25
2023-04-02T12:49:59.359Z,57.84
2023-04-02T12:50:59.367Z,59.13
2023-04-02T12:51:59.383Z,56.98